sensor_id;sensor_type;location;lat;lon;timestamp;P1;durP1;ratioP1;P2;durP2;ratioP2
26488;SDS011;14169;43.684;10.484;2022-11-20T00:00:23;3.75;;;3.35;;
26488;SDS011;14169;43.684;10.484;2022-11-20T00:02:49;4.07;;;2.95;;
26488;SDS011;14169;43.684;10.484;2022-11-20T00:05:14;3.45;;;3.10;;
26488;SDS011;14169;43.684;10.484;2022-11-20T00:07:39;5.70;;;3.50;;
26488;SDS011;14169;43.684;10.484;2022-11-20T00:10:05;3.80;;;3.28;;
26488;SDS011;14169;43.684;10.484;2022-11-20T00:12:31;3.60;;;3.28;;
26488;SDS011;14169;43.684;10.484;2022-11-20T00:14:56;3.83;;;2.90;;
26488;SDS011;14169;43.684;10.484;2022-11-20T00:17:22;2.70;;;2.50;;
26488;SDS011;14169;43.684;10.484;2022-11-20T00:19:47;3.50;;;2.83;;
26488;SDS011;14169;43.684;10.484;2022-11-20T00:22:13;3.95;;;3.13;;
26488;SDS011;14169;43.684;10.484;2022-11-20T00:24:39;4.10;;;3.80;;
26488;SDS011;14169;43.684;10.484;2022-11-20T00:27:04;3.28;;;2.95;;
26488;SDS011;14169;43.684;10.484;2022-11-20T00:29:30;5.32;;;2.67;;
26488;SDS011;14169;43.684;10.484;2022-11-20T00:31:55;3.10;;;2.80;;
26488;SDS011;14169;43.684;10.484;2022-11-20T00:34:20;4.60;;;3.08;;
26488;SDS011;14169;43.684;10.484;2022-11-20T00:36:46;3.03;;;2.72;;
26488;SDS011;14169;43.684;10.484;2022-11-20T00:39:11;3.35;;;2.58;;
26488;SDS011;14169;43.684;10.484;2022-11-20T00:41:37;4.05;;;2.63;;
26488;SDS011;14169;43.684;10.484;2022-11-20T00:44:02;3.50;;;3.05;;
26488;SDS011;14169;43.684;10.484;2022-11-20T00:46:28;4.47;;;2.80;;
26488;SDS011;14169;43.684;10.484;2022-11-20T00:48:54;5.93;;;3.28;;
26488;SDS011;14169;43.684;10.484;2022-11-20T00:51:21;3.67;;;2.63;;
26488;SDS011;14169;43.684;10.484;2022-11-20T00:53:49;2.63;;;2.17;;
26488;SDS011;14169;43.684;10.484;2022-11-20T00:56:16;2.88;;;2.60;;
26488;SDS011;14169;43.684;10.484;2022-11-20T00:58:43;4.97;;;2.30;;
26488;SDS011;14169;43.684;10.484;2022-11-20T01:03:49;3.58;;;2.65;;
26488;SDS011;14169;43.684;10.484;2022-11-20T01:06:35;3.33;;;2.28;;
26488;SDS011;14169;43.684;10.484;2022-11-20T01:09:03;3.00;;;2.40;;
26488;SDS011;14169;43.684;10.484;2022-11-20T01:11:31;3.13;;;2.83;;
26488;SDS011;14169;43.684;10.484;2022-11-20T01:14:03;6.72;;;3.60;;
26488;SDS011;14169;43.684;10.484;2022-11-20T01:16:32;3.72;;;3.38;;
26488;SDS011;14169;43.684;10.484;2022-11-20T01:19:22;5.53;;;4.28;;
26488;SDS011;14169;43.684;10.484;2022-11-20T01:21:49;5.05;;;4.55;;
26488;SDS011;14169;43.684;10.484;2022-11-20T01:24:16;4.28;;;3.90;;
26488;SDS011;14169;43.684;10.484;2022-11-20T01:26:44;5.13;;;4.63;;
26488;SDS011;14169;43.684;10.484;2022-11-20T01:29:12;10.55;;;5.30;;
26488;SDS011;14169;43.684;10.484;2022-11-20T01:31:40;24.42;;;8.48;;
26488;SDS011;14169;43.684;10.484;2022-11-20T01:34:07;7.90;;;7.20;;
26488;SDS011;14169;43.684;10.484;2022-11-20T01:36:36;8.38;;;7.75;;
26488;SDS011;14169;43.684;10.484;2022-11-20T01:39:04;8.07;;;7.47;;
26488;SDS011;14169;43.684;10.484;2022-11-20T01:41:32;7.50;;;6.55;;
26488;SDS011;14169;43.684;10.484;2022-11-20T01:44:18;6.35;;;5.78;;
26488;SDS011;14169;43.684;10.484;2022-11-20T01:46:53;6.30;;;5.80;;
26488;SDS011;14169;43.684;10.484;2022-11-20T01:49:24;6.85;;;6.35;;
26488;SDS011;14169;43.684;10.484;2022-11-20T01:52:38;7.00;;;6.43;;
26488;SDS011;14169;43.684;10.484;2022-11-20T01:54:52;7.38;;;5.43;;
26488;SDS011;14169;43.684;10.484;2022-11-20T01:57:22;5.93;;;5.43;;
26488;SDS011;14169;43.684;10.484;2022-11-20T01:59:52;6.05;;;5.45;;
26488;SDS011;14169;43.684;10.484;2022-11-20T02:02:21;4.50;;;3.10;;
26488;SDS011;14169;43.684;10.484;2022-11-20T02:04:47;4.50;;;4.10;;
26488;SDS011;14169;43.684;10.484;2022-11-20T02:07:16;4.82;;;4.43;;
26488;SDS011;14169;43.684;10.484;2022-11-20T02:09:42;4.97;;;4.47;;
26488;SDS011;14169;43.684;10.484;2022-11-20T02:12:08;4.28;;;3.83;;
26488;SDS011;14169;43.684;10.484;2022-11-20T02:14:53;5.47;;;3.70;;
26488;SDS011;14169;43.684;10.484;2022-11-20T02:17:19;4.03;;;3.72;;
26488;SDS011;14169;43.684;10.484;2022-11-20T02:19:45;3.67;;;3.30;;
26488;SDS011;14169;43.684;10.484;2022-11-20T02:22:21;4.03;;;3.63;;
26488;SDS011;14169;43.684;10.484;2022-11-20T02:24:53;4.28;;;3.88;;
26488;SDS011;14169;43.684;10.484;2022-11-20T02:27:19;4.82;;;3.63;;
26488;SDS011;14169;43.684;10.484;2022-11-20T02:29:47;4.38;;;3.65;;
26488;SDS011;14169;43.684;10.484;2022-11-20T02:32:23;4.63;;;4.05;;
26488;SDS011;14169;43.684;10.484;2022-11-20T02:35:06;4.18;;;3.88;;
26488;SDS011;14169;43.684;10.484;2022-11-20T02:37:52;4.53;;;4.07;;
26488;SDS011;14169;43.684;10.484;2022-11-20T02:40:20;4.20;;;3.88;;
26488;SDS011;14169;43.684;10.484;2022-11-20T02:42:45;4.85;;;4.45;;
26488;SDS011;14169;43.684;10.484;2022-11-20T02:45:11;6.85;;;5.05;;
26488;SDS011;14169;43.684;10.484;2022-11-20T02:47:36;5.60;;;5.10;;
26488;SDS011;14169;43.684;10.484;2022-11-20T02:50:02;5.82;;;5.32;;
26488;SDS011;14169;43.684;10.484;2022-11-20T02:52:29;6.18;;;5.30;;
26488;SDS011;14169;43.684;10.484;2022-11-20T02:54:55;6.55;;;5.85;;
26488;SDS011;14169;43.684;10.484;2022-11-20T02:57:20;6.47;;;5.68;;
26488;SDS011;14169;43.684;10.484;2022-11-20T02:59:46;6.57;;;6.03;;
26488;SDS011;14169;43.684;10.484;2022-11-20T03:02:11;8.18;;;7.38;;
26488;SDS011;14169;43.684;10.484;2022-11-20T03:04:37;9.65;;;8.85;;
26488;SDS011;14169;43.684;10.484;2022-11-20T03:07:02;16.17;;;9.35;;
26488;SDS011;14169;43.684;10.484;2022-11-20T03:09:28;11.30;;;10.10;;
26488;SDS011;14169;43.684;10.484;2022-11-20T03:11:53;10.27;;;9.43;;
26488;SDS011;14169;43.684;10.484;2022-11-20T03:14:19;11.50;;;10.40;;
26488;SDS011;14169;43.684;10.484;2022-11-20T03:16:44;9.95;;;9.15;;
26488;SDS011;14169;43.684;10.484;2022-11-20T03:19:10;11.07;;;10.07;;
26488;SDS011;14169;43.684;10.484;2022-11-20T03:21:37;10.85;;;9.88;;
26488;SDS011;14169;43.684;10.484;2022-11-20T03:24:02;10.38;;;9.48;;
26488;SDS011;14169;43.684;10.484;2022-11-20T03:26:28;10.60;;;9.70;;
26488;SDS011;14169;43.684;10.484;2022-11-20T03:28:55;10.10;;;9.13;;
26488;SDS011;14169;43.684;10.484;2022-11-20T03:31:43;10.90;;;10.00;;
26488;SDS011;14169;43.684;10.484;2022-11-20T03:34:09;9.90;;;9.05;;
26488;SDS011;14169;43.684;10.484;2022-11-20T03:36:37;10.18;;;9.35;;
26488;SDS011;14169;43.684;10.484;2022-11-20T03:39:04;9.38;;;8.68;;
26488;SDS011;14169;43.684;10.484;2022-11-20T03:41:30;9.80;;;9.00;;
26488;SDS011;14169;43.684;10.484;2022-11-20T03:43:57;9.50;;;8.70;;
26488;SDS011;14169;43.684;10.484;2022-11-20T03:46:25;8.90;;;8.20;;
26488;SDS011;14169;43.684;10.484;2022-11-20T03:48:51;10.27;;;9.27;;
26488;SDS011;14169;43.684;10.484;2022-11-20T03:51:18;9.85;;;8.95;;
26488;SDS011;14169;43.684;10.484;2022-11-20T03:53:44;10.50;;;9.60;;
26488;SDS011;14169;43.684;10.484;2022-11-20T03:56:12;12.73;;;8.90;;
26488;SDS011;14169;43.684;10.484;2022-11-20T03:58:39;10.15;;;9.02;;
26488;SDS011;14169;43.684;10.484;2022-11-20T04:01:09;10.15;;;9.27;;
26488;SDS011;14169;43.684;10.484;2022-11-20T04:03:39;10.85;;;9.90;;
26488;SDS011;14169;43.684;10.484;2022-11-20T04:06:07;10.38;;;9.52;;
26488;SDS011;14169;43.684;10.484;2022-11-20T04:08:34;10.95;;;9.93;;
26488;SDS011;14169;43.684;10.484;2022-11-20T04:11:19;10.35;;;9.43;;
26488;SDS011;14169;43.684;10.484;2022-11-20T04:13:47;10.38;;;9.38;;
26488;SDS011;14169;43.684;10.484;2022-11-20T04:16:15;10.27;;;9.48;;
26488;SDS011;14169;43.684;10.484;2022-11-20T04:18:40;10.45;;;9.55;;
26488;SDS011;14169;43.684;10.484;2022-11-20T04:21:06;11.30;;;9.82;;
26488;SDS011;14169;43.684;10.484;2022-11-20T04:23:31;10.13;;;9.32;;
26488;SDS011;14169;43.684;10.484;2022-11-20T04:26:07;8.93;;;8.18;;
26488;SDS011;14169;43.684;10.484;2022-11-20T04:28:34;10.40;;;9.38;;
26488;SDS011;14169;43.684;10.484;2022-11-20T04:31:10;9.85;;;8.95;;
26488;SDS011;14169;43.684;10.484;2022-11-20T04:33:37;9.90;;;9.00;;
26488;SDS011;14169;43.684;10.484;2022-11-20T04:38:39;9.70;;;8.90;;
26488;SDS011;14169;43.684;10.484;2022-11-20T04:41:05;10.68;;;9.88;;
26488;SDS011;14169;43.684;10.484;2022-11-20T04:43:32;10.00;;;9.20;;
26488;SDS011;14169;43.684;10.484;2022-11-20T04:45:58;9.07;;;8.38;;
26488;SDS011;14169;43.684;10.484;2022-11-20T04:48:25;9.43;;;8.52;;
26488;SDS011;14169;43.684;10.484;2022-11-20T04:50:52;10.75;;;9.68;;
26488;SDS011;14169;43.684;10.484;2022-11-20T04:53:18;10.65;;;8.63;;
26488;SDS011;14169;43.684;10.484;2022-11-20T04:55:44;9.07;;;8.38;;
26488;SDS011;14169;43.684;10.484;2022-11-20T04:58:10;7.43;;;6.82;;
26488;SDS011;14169;43.684;10.484;2022-11-20T05:00:35;8.85;;;5.80;;
26488;SDS011;14169;43.684;10.484;2022-11-20T05:03:01;5.70;;;5.07;;
26488;SDS011;14169;43.684;10.484;2022-11-20T05:05:26;6.75;;;4.57;;
26488;SDS011;14169;43.684;10.484;2022-11-20T05:07:52;4.10;;;3.80;;
26488;SDS011;14169;43.684;10.484;2022-11-20T05:10:17;4.47;;;4.10;;
26488;SDS011;14169;43.684;10.484;2022-11-20T05:12:43;5.10;;;4.60;;
26488;SDS011;14169;43.684;10.484;2022-11-20T05:15:08;4.32;;;3.92;;
26488;SDS011;14169;43.684;10.484;2022-11-20T05:17:34;4.13;;;3.72;;
26488;SDS011;14169;43.684;10.484;2022-11-20T05:19:59;4.28;;;3.90;;
26488;SDS011;14169;43.684;10.484;2022-11-20T05:22:25;4.55;;;3.80;;
26488;SDS011;14169;43.684;10.484;2022-11-20T05:24:50;5.10;;;4.18;;
26488;SDS011;14169;43.684;10.484;2022-11-20T05:27:16;4.57;;;4.13;;
26488;SDS011;14169;43.684;10.484;2022-11-20T05:29:41;4.85;;;4.07;;
26488;SDS011;14169;43.684;10.484;2022-11-20T05:32:06;5.20;;;4.70;;
26488;SDS011;14169;43.684;10.484;2022-11-20T05:34:34;6.10;;;4.40;;
26488;SDS011;14169;43.684;10.484;2022-11-20T05:37:00;6.82;;;3.50;;
26488;SDS011;14169;43.684;10.484;2022-11-20T05:39:25;4.38;;;3.97;;
26488;SDS011;14169;43.684;10.484;2022-11-20T05:41:51;6.78;;;4.88;;
26488;SDS011;14169;43.684;10.484;2022-11-20T05:44:36;5.78;;;4.38;;
26488;SDS011;14169;43.684;10.484;2022-11-20T05:47:01;3.78;;;3.38;;
26488;SDS011;14169;43.684;10.484;2022-11-20T05:49:27;5.88;;;3.85;;
26488;SDS011;14169;43.684;10.484;2022-11-20T05:51:52;6.72;;;4.03;;
26488;SDS011;14169;43.684;10.484;2022-11-20T05:54:17;4.40;;;4.00;;
26488;SDS011;14169;43.684;10.484;2022-11-20T05:56:43;7.80;;;4.32;;
26488;SDS011;14169;43.684;10.484;2022-11-20T05:59:08;6.50;;;4.40;;
26488;SDS011;14169;43.684;10.484;2022-11-20T06:01:33;4.18;;;3.78;;
26488;SDS011;14169;43.684;10.484;2022-11-20T06:04:01;4.95;;;4.55;;
26488;SDS011;14169;43.684;10.484;2022-11-20T06:06:26;6.78;;;4.78;;
26488;SDS011;14169;43.684;10.484;2022-11-20T06:08:52;6.15;;;5.55;;
26488;SDS011;14169;43.684;10.484;2022-11-20T06:11:17;5.82;;;4.78;;
26488;SDS011;14169;43.684;10.484;2022-11-20T06:13:43;4.40;;;4.00;;
26488;SDS011;14169;43.684;10.484;2022-11-20T06:16:10;5.53;;;4.57;;
26488;SDS011;14169;43.684;10.484;2022-11-20T06:18:36;4.60;;;4.13;;
26488;SDS011;14169;43.684;10.484;2022-11-20T06:21:09;5.45;;;4.13;;
26488;SDS011;14169;43.684;10.484;2022-11-20T06:23:39;5.70;;;4.45;;
26488;SDS011;14169;43.684;10.484;2022-11-20T06:26:09;4.20;;;3.70;;
26488;SDS011;14169;43.684;10.484;2022-11-20T06:28:36;5.80;;;5.30;;
26488;SDS011;14169;43.684;10.484;2022-11-20T06:31:03;5.05;;;4.63;;
26488;SDS011;14169;43.684;10.484;2022-11-20T06:33:29;7.50;;;5.25;;
26488;SDS011;14169;43.684;10.484;2022-11-20T06:35:59;9.07;;;5.68;;
26488;SDS011;14169;43.684;10.484;2022-11-20T06:38:25;5.80;;;5.10;;
26488;SDS011;14169;43.684;10.484;2022-11-20T06:40:52;5.38;;;4.88;;
26488;SDS011;14169;43.684;10.484;2022-11-20T06:43:17;5.40;;;4.90;;
26488;SDS011;14169;43.684;10.484;2022-11-20T06:45:43;10.30;;;5.65;;
26488;SDS011;14169;43.684;10.484;2022-11-20T06:48:08;10.02;;;6.10;;
26488;SDS011;14169;43.684;10.484;2022-11-20T06:50:35;7.18;;;6.57;;
26488;SDS011;14169;43.684;10.484;2022-11-20T06:53:01;6.88;;;6.28;;
26488;SDS011;14169;43.684;10.484;2022-11-20T06:55:28;6.50;;;5.85;;
26488;SDS011;14169;43.684;10.484;2022-11-20T06:57:53;6.32;;;5.82;;
26488;SDS011;14169;43.684;10.484;2022-11-20T07:00:19;6.50;;;5.90;;
26488;SDS011;14169;43.684;10.484;2022-11-20T07:02:44;6.25;;;5.70;;
26488;SDS011;14169;43.684;10.484;2022-11-20T07:05:09;7.88;;;4.97;;
26488;SDS011;14169;43.684;10.484;2022-11-20T07:07:35;6.15;;;5.65;;
26488;SDS011;14169;43.684;10.484;2022-11-20T07:10:00;6.60;;;5.03;;
26488;SDS011;14169;43.684;10.484;2022-11-20T07:12:25;4.72;;;4.32;;
26488;SDS011;14169;43.684;10.484;2022-11-20T07:14:51;5.55;;;5.05;;
26488;SDS011;14169;43.684;10.484;2022-11-20T07:17:16;7.00;;;5.47;;
26488;SDS011;14169;43.684;10.484;2022-11-20T07:19:42;5.40;;;4.80;;
26488;SDS011;14169;43.684;10.484;2022-11-20T07:22:08;4.80;;;4.28;;
26488;SDS011;14169;43.684;10.484;2022-11-20T07:24:33;5.00;;;4.60;;
26488;SDS011;14169;43.684;10.484;2022-11-20T07:26:59;4.85;;;4.35;;
26488;SDS011;14169;43.684;10.484;2022-11-20T07:29:25;4.30;;;4.00;;
26488;SDS011;14169;43.684;10.484;2022-11-20T07:31:50;3.88;;;3.50;;
26488;SDS011;14169;43.684;10.484;2022-11-20T07:34:16;3.17;;;2.90;;
26488;SDS011;14169;43.684;10.484;2022-11-20T07:36:41;3.45;;;3.13;;
26488;SDS011;14169;43.684;10.484;2022-11-20T07:39:06;3.72;;;3.40;;
26488;SDS011;14169;43.684;10.484;2022-11-20T07:41:32;3.63;;;3.33;;
26488;SDS011;14169;43.684;10.484;2022-11-20T07:43:57;3.92;;;3.55;;
26488;SDS011;14169;43.684;10.484;2022-11-20T07:46:23;3.38;;;3.08;;
26488;SDS011;14169;43.684;10.484;2022-11-20T07:48:48;3.08;;;2.42;;
26488;SDS011;14169;43.684;10.484;2022-11-20T07:51:13;3.40;;;3.10;;
26488;SDS011;14169;43.684;10.484;2022-11-20T07:53:39;2.95;;;2.65;;
26488;SDS011;14169;43.684;10.484;2022-11-20T07:56:05;3.47;;;3.17;;
26488;SDS011;14169;43.684;10.484;2022-11-20T07:58:31;3.42;;;3.13;;
26488;SDS011;14169;43.684;10.484;2022-11-20T08:00:58;3.15;;;2.83;;
26488;SDS011;14169;43.684;10.484;2022-11-20T08:03:28;3.13;;;2.92;;
26488;SDS011;14169;43.684;10.484;2022-11-20T08:05:53;3.28;;;2.97;;
26488;SDS011;14169;43.684;10.484;2022-11-20T08:08:18;3.30;;;3.00;;
26488;SDS011;14169;43.684;10.484;2022-11-20T08:10:44;3.60;;;3.30;;
26488;SDS011;14169;43.684;10.484;2022-11-20T08:13:10;3.88;;;3.40;;
26488;SDS011;14169;43.684;10.484;2022-11-20T08:15:54;3.22;;;3.00;;
26488;SDS011;14169;43.684;10.484;2022-11-20T08:18:19;4.15;;;3.75;;
26488;SDS011;14169;43.684;10.484;2022-11-20T08:20:45;3.67;;;3.38;;
26488;SDS011;14169;43.684;10.484;2022-11-20T08:23:10;3.03;;;2.83;;
26488;SDS011;14169;43.684;10.484;2022-11-20T08:25:36;3.45;;;3.15;;
26488;SDS011;14169;43.684;10.484;2022-11-20T08:28:06;3.97;;;3.58;;
26488;SDS011;14169;43.684;10.484;2022-11-20T08:30:33;3.85;;;3.22;;
26488;SDS011;14169;43.684;10.484;2022-11-20T08:33:03;3.53;;;3.22;;
26488;SDS011;14169;43.684;10.484;2022-11-20T08:35:36;5.07;;;3.67;;
26488;SDS011;14169;43.684;10.484;2022-11-20T08:38:04;3.97;;;3.67;;
26488;SDS011;14169;43.684;10.484;2022-11-20T08:40:30;5.03;;;3.05;;
26488;SDS011;14169;43.684;10.484;2022-11-20T08:42:56;3.40;;;3.10;;
26488;SDS011;14169;43.684;10.484;2022-11-20T08:45:22;3.60;;;3.30;;
26488;SDS011;14169;43.684;10.484;2022-11-20T08:47:47;3.42;;;3.13;;
26488;SDS011;14169;43.684;10.484;2022-11-20T08:50:14;3.38;;;3.08;;
26488;SDS011;14169;43.684;10.484;2022-11-20T08:52:41;3.97;;;3.58;;
26488;SDS011;14169;43.684;10.484;2022-11-20T08:55:06;5.22;;;4.65;;
26488;SDS011;14169;43.684;10.484;2022-11-20T08:57:33;5.30;;;4.93;;
26488;SDS011;14169;43.684;10.484;2022-11-20T09:00:03;6.13;;;5.72;;
26488;SDS011;14169;43.684;10.484;2022-11-20T09:02:30;6.85;;;6.35;;
26488;SDS011;14169;43.684;10.484;2022-11-20T09:04:57;4.03;;;3.72;;
26488;SDS011;14169;43.684;10.484;2022-11-20T09:07:23;4.38;;;3.97;;
26488;SDS011;14169;43.684;10.484;2022-11-20T09:09:48;4.22;;;3.80;;
26488;SDS011;14169;43.684;10.484;2022-11-20T09:12:13;4.35;;;3.42;;
26488;SDS011;14169;43.684;10.484;2022-11-20T09:14:39;5.15;;;3.45;;
26488;SDS011;14169;43.684;10.484;2022-11-20T09:17:04;3.65;;;3.35;;
26488;SDS011;14169;43.684;10.484;2022-11-20T09:19:32;3.95;;;3.22;;
26488;SDS011;14169;43.684;10.484;2022-11-20T09:21:58;3.63;;;3.17;;
26488;SDS011;14169;43.684;10.484;2022-11-20T09:24:24;3.83;;;3.47;;
26488;SDS011;14169;43.684;10.484;2022-11-20T09:26:50;3.88;;;2.95;;
26488;SDS011;14169;43.684;10.484;2022-11-20T09:29:16;2.95;;;2.67;;
26488;SDS011;14169;43.684;10.484;2022-11-20T09:31:41;2.33;;;2.13;;
26488;SDS011;14169;43.684;10.484;2022-11-20T09:34:06;5.05;;;2.63;;
26488;SDS011;14169;43.684;10.484;2022-11-20T09:36:32;2.70;;;2.08;;
26488;SDS011;14169;43.684;10.484;2022-11-20T09:38:57;2.30;;;2.00;;
26488;SDS011;14169;43.684;10.484;2022-11-20T09:46:58;2.45;;;2.25;;
26488;SDS011;14169;43.684;10.484;2022-11-20T09:55:09;1.70;;;1.40;;
26488;SDS011;14169;43.684;10.484;2022-11-20T09:57:37;2.03;;;1.20;;
26488;SDS011;14169;43.684;10.484;2022-11-20T10:00:09;1.75;;;1.20;;
26488;SDS011;14169;43.684;10.484;2022-11-20T10:05:35;0.82;;;0.80;;
26488;SDS011;14169;43.684;10.484;2022-11-20T10:08:30;2.08;;;1.10;;
26488;SDS011;14169;43.684;10.484;2022-11-20T10:11:05;1.23;;;0.95;;
26488;SDS011;14169;43.684;10.484;2022-11-20T10:16:13;1.75;;;0.90;;
26488;SDS011;14169;43.684;10.484;2022-11-20T10:21:49;2.38;;;0.90;;
26488;SDS011;14169;43.684;10.484;2022-11-20T10:29:47;3.95;;;1.10;;
26488;SDS011;14169;43.684;10.484;2022-11-20T10:32:24;1.40;;;1.00;;
26488;SDS011;14169;43.684;10.484;2022-11-20T10:37:44;3.33;;;1.05;;
26488;SDS011;14169;43.684;10.484;2022-11-20T10:40:23;2.13;;;0.98;;
26488;SDS011;14169;43.684;10.484;2022-11-20T10:42:56;1.73;;;0.70;;
26488;SDS011;14169;43.684;10.484;2022-11-20T10:48:14;2.88;;;0.65;;
26488;SDS011;14169;43.684;10.484;2022-11-20T10:50:40;1.80;;;1.00;;
26488;SDS011;14169;43.684;10.484;2022-11-20T11:01:51;1.25;;;1.10;;
26488;SDS011;14169;43.684;10.484;2022-11-20T11:06:54;1.23;;;0.80;;
26488;SDS011;14169;43.684;10.484;2022-11-20T11:09:33;1.67;;;0.93;;
26488;SDS011;14169;43.684;10.484;2022-11-20T11:12:05;1.00;;;0.90;;
26488;SDS011;14169;43.684;10.484;2022-11-20T11:14:41;1.27;;;1.00;;
26488;SDS011;14169;43.684;10.484;2022-11-20T11:17:17;1.63;;;1.20;;
26488;SDS011;14169;43.684;10.484;2022-11-20T11:20:00;3.25;;;2.28;;
26488;SDS011;14169;43.684;10.484;2022-11-20T11:22:25;2.78;;;1.88;;
26488;SDS011;14169;43.684;10.484;2022-11-20T11:24:54;2.00;;;1.08;;
26488;SDS011;14169;43.684;10.484;2022-11-20T11:27:19;1.40;;;1.00;;
26488;SDS011;14169;43.684;10.484;2022-11-20T11:29:45;2.30;;;1.17;;
26488;SDS011;14169;43.684;10.484;2022-11-20T11:32:12;4.88;;;1.10;;
26488;SDS011;14169;43.684;10.484;2022-11-20T11:34:43;0.80;;;0.80;;
26488;SDS011;14169;43.684;10.484;2022-11-20T11:37:18;1.33;;;0.90;;
26488;SDS011;14169;43.684;10.484;2022-11-20T11:39:46;1.67;;;0.88;;
26488;SDS011;14169;43.684;10.484;2022-11-20T11:42:15;1.23;;;0.80;;
26488;SDS011;14169;43.684;10.484;2022-11-20T11:44:44;1.55;;;0.95;;
26488;SDS011;14169;43.684;10.484;2022-11-20T11:55:09;1.75;;;1.02;;
26488;SDS011;14169;43.684;10.484;2022-11-20T12:16:07;1.70;;;0.80;;
26488;SDS011;14169;43.684;10.484;2022-11-20T12:18:40;2.80;;;1.00;;
26488;SDS011;14169;43.684;10.484;2022-11-20T12:21:12;1.50;;;0.70;;
26488;SDS011;14169;43.684;10.484;2022-11-20T12:24:10;1.33;;;0.80;;
26488;SDS011;14169;43.684;10.484;2022-11-20T12:34:24;6.18;;;0.80;;
26488;SDS011;14169;43.684;10.484;2022-11-20T12:36:56;0.75;;;0.68;;
26488;SDS011;14169;43.684;10.484;2022-11-20T12:39:34;1.23;;;1.02;;
26488;SDS011;14169;43.684;10.484;2022-11-20T12:56:57;1.00;;;0.70;;
26488;SDS011;14169;43.684;10.484;2022-11-20T13:07:42;1.65;;;0.80;;
26488;SDS011;14169;43.684;10.484;2022-11-20T13:10:13;0.93;;;0.75;;
26488;SDS011;14169;43.684;10.484;2022-11-20T13:12:44;2.15;;;0.90;;
26488;SDS011;14169;43.684;10.484;2022-11-20T13:17:46;1.50;;;0.98;;
26488;SDS011;14169;43.684;10.484;2022-11-20T13:20:16;0.88;;;0.80;;
26488;SDS011;14169;43.684;10.484;2022-11-20T13:25:21;0.60;;;0.60;;
26488;SDS011;14169;43.684;10.484;2022-11-20T13:27:53;0.70;;;0.70;;
26488;SDS011;14169;43.684;10.484;2022-11-20T13:30:20;1.85;;;0.50;;
26488;SDS011;14169;43.684;10.484;2022-11-20T13:32:51;1.15;;;0.60;;
26488;SDS011;14169;43.684;10.484;2022-11-20T13:35:24;0.70;;;0.55;;
26488;SDS011;14169;43.684;10.484;2022-11-20T13:37:59;0.90;;;0.50;;
26488;SDS011;14169;43.684;10.484;2022-11-20T13:40:55;0.60;;;0.60;;
26488;SDS011;14169;43.684;10.484;2022-11-20T13:43:44;0.98;;;0.70;;
26488;SDS011;14169;43.684;10.484;2022-11-20T13:46:12;0.88;;;0.73;;
26488;SDS011;14169;43.684;10.484;2022-11-20T13:48:40;1.10;;;0.57;;
26488;SDS011;14169;43.684;10.484;2022-11-20T14:02:13;1.70;;;0.55;;
26488;SDS011;14169;43.684;10.484;2022-11-20T14:04:42;1.20;;;0.70;;
26488;SDS011;14169;43.684;10.484;2022-11-20T14:07:10;1.20;;;1.00;;
26488;SDS011;14169;43.684;10.484;2022-11-20T14:09:37;0.98;;;0.80;;
26488;SDS011;14169;43.684;10.484;2022-11-20T14:12:03;1.42;;;0.50;;
26488;SDS011;14169;43.684;10.484;2022-11-20T14:14:30;1.00;;;0.57;;
26488;SDS011;14169;43.684;10.484;2022-11-20T14:20:04;0.80;;;0.50;;
26488;SDS011;14169;43.684;10.484;2022-11-20T14:22:32;0.65;;;0.57;;
26488;SDS011;14169;43.684;10.484;2022-11-20T14:27:56;0.73;;;0.50;;
26488;SDS011;14169;43.684;10.484;2022-11-20T14:30:24;1.75;;;0.52;;
26488;SDS011;14169;43.684;10.484;2022-11-20T14:32:53;0.88;;;0.60;;
26488;SDS011;14169;43.684;10.484;2022-11-20T14:35:25;1.50;;;0.73;;
26488;SDS011;14169;43.684;10.484;2022-11-20T14:37:52;0.70;;;0.60;;
26488;SDS011;14169;43.684;10.484;2022-11-20T14:42:49;0.82;;;0.60;;
26488;SDS011;14169;43.684;10.484;2022-11-20T14:45:15;1.13;;;0.60;;
26488;SDS011;14169;43.684;10.484;2022-11-20T14:47:41;1.45;;;0.90;;
26488;SDS011;14169;43.684;10.484;2022-11-20T14:50:22;0.60;;;0.60;;
26488;SDS011;14169;43.684;10.484;2022-11-20T14:55:24;0.80;;;0.73;;
26488;SDS011;14169;43.684;10.484;2022-11-20T14:57:54;1.30;;;0.82;;
26488;SDS011;14169;43.684;10.484;2022-11-20T15:00:21;0.90;;;0.60;;
26488;SDS011;14169;43.684;10.484;2022-11-20T15:02:48;1.42;;;0.80;;
26488;SDS011;14169;43.684;10.484;2022-11-20T15:05:15;1.25;;;1.00;;
26488;SDS011;14169;43.684;10.484;2022-11-20T15:07:43;1.52;;;0.85;;
26488;SDS011;14169;43.684;10.484;2022-11-20T15:10:23;1.52;;;0.68;;
26488;SDS011;14169;43.684;10.484;2022-11-20T15:12:51;0.60;;;0.60;;
26488;SDS011;14169;43.684;10.484;2022-11-20T15:18:18;1.50;;;0.70;;
26488;SDS011;14169;43.684;10.484;2022-11-20T15:20:46;1.50;;;0.70;;
26488;SDS011;14169;43.684;10.484;2022-11-20T15:23:14;0.60;;;0.60;;
26488;SDS011;14169;43.684;10.484;2022-11-20T15:25:43;1.95;;;0.55;;
26488;SDS011;14169;43.684;10.484;2022-11-20T15:28:19;0.95;;;0.65;;
26488;SDS011;14169;43.684;10.484;2022-11-20T15:30:47;1.25;;;0.75;;
26488;SDS011;14169;43.684;10.484;2022-11-20T15:33:14;0.98;;;0.88;;
26488;SDS011;14169;43.684;10.484;2022-11-20T15:35:41;0.90;;;0.80;;
26488;SDS011;14169;43.684;10.484;2022-11-20T15:38:07;1.10;;;0.77;;
26488;SDS011;14169;43.684;10.484;2022-11-20T15:40:32;1.23;;;0.95;;
26488;SDS011;14169;43.684;10.484;2022-11-20T15:42:58;2.00;;;1.00;;
26488;SDS011;14169;43.684;10.484;2022-11-20T15:45:34;1.42;;;1.17;;
26488;SDS011;14169;43.684;10.484;2022-11-20T15:48:01;2.55;;;1.15;;
26488;SDS011;14169;43.684;10.484;2022-11-20T15:50:29;1.45;;;1.00;;
26488;SDS011;14169;43.684;10.484;2022-11-20T15:52:59;1.42;;;1.33;;
26488;SDS011;14169;43.684;10.484;2022-11-20T15:55:24;2.17;;;1.25;;
26488;SDS011;14169;43.684;10.484;2022-11-20T15:57:50;1.38;;;1.00;;
26488;SDS011;14169;43.684;10.484;2022-11-20T16:00:15;2.30;;;1.33;;
26488;SDS011;14169;43.684;10.484;2022-11-20T16:02:41;2.60;;;1.55;;
26488;SDS011;14169;43.684;10.484;2022-11-20T16:05:09;2.50;;;2.03;;
26488;SDS011;14169;43.684;10.484;2022-11-20T16:07:36;4.75;;;2.10;;
26488;SDS011;14169;43.684;10.484;2022-11-20T16:10:01;5.00;;;3.17;;
26488;SDS011;14169;43.684;10.484;2022-11-20T16:12:28;7.07;;;3.28;;
26488;SDS011;14169;43.684;10.484;2022-11-20T16:15:12;6.45;;;3.47;;
26488;SDS011;14169;43.684;10.484;2022-11-20T16:17:55;4.40;;;2.42;;
26488;SDS011;14169;43.684;10.484;2022-11-20T16:20:21;3.60;;;2.80;;
26488;SDS011;14169;43.684;10.484;2022-11-20T16:22:46;4.28;;;3.08;;
26488;SDS011;14169;43.684;10.484;2022-11-20T16:25:14;6.32;;;4.60;;
26488;SDS011;14169;43.684;10.484;2022-11-20T16:27:41;12.73;;;9.57;;
26488;SDS011;14169;43.684;10.484;2022-11-20T16:30:06;15.40;;;11.85;;
26488;SDS011;14169;43.684;10.484;2022-11-20T16:32:32;21.25;;;17.55;;
26488;SDS011;14169;43.684;10.484;2022-11-20T16:34:58;35.08;;;24.35;;
26488;SDS011;14169;43.684;10.484;2022-11-20T16:37:23;53.33;;;35.53;;
26488;SDS011;14169;43.684;10.484;2022-11-20T16:39:48;22.63;;;19.70;;
26488;SDS011;14169;43.684;10.484;2022-11-20T16:42:14;23.95;;;21.13;;
26488;SDS011;14169;43.684;10.484;2022-11-20T16:44:39;19.50;;;17.80;;
26488;SDS011;14169;43.684;10.484;2022-11-20T16:47:05;14.48;;;12.80;;
26488;SDS011;14169;43.684;10.484;2022-11-20T16:49:30;11.68;;;10.60;;
26488;SDS011;14169;43.684;10.484;2022-11-20T16:51:57;13.73;;;11.60;;
26488;SDS011;14169;43.684;10.484;2022-11-20T16:54:22;12.80;;;11.60;;